createdAt,value
2018-07-13T00:02:05.482Z,4.37
2018-07-13T00:04:33.747Z,4.50
2018-07-13T00:07:01.869Z,3.80
2018-07-13T00:09:29.987Z,4.90
2018-07-13T00:11:58.135Z,4.57
2018-07-13T00:14:26.338Z,4.00
2018-07-13T00:16:55.612Z,4.13
2018-07-13T00:19:24.356Z,5.13
2018-07-13T00:21:52.697Z,4.30
2018-07-13T00:24:20.852Z,4.73
2018-07-13T00:26:49.001Z,3.80
2018-07-13T00:29:16.984Z,4.40
2018-07-13T00:31:45.281Z,4.47
2018-07-13T00:34:13.449Z,4.93
2018-07-13T00:36:41.605Z,3.90
2018-07-13T00:39:11.340Z,4.60
2018-07-13T00:41:39.543Z,4.20
2018-07-13T00:44:08.249Z,4.47
2018-07-13T00:46:36.457Z,4.17
2018-07-13T00:49:04.625Z,4.37
2018-07-13T00:51:32.825Z,3.90
2018-07-13T00:54:01.002Z,5.13
2018-07-13T00:56:29.114Z,4.33
2018-07-13T00:58:57.232Z,4.03
2018-07-13T01:01:25.316Z,4.10
2018-07-13T01:03:53.472Z,4.20
2018-07-13T01:06:21.548Z,4.17
2018-07-13T01:08:49.674Z,4.53
2018-07-13T01:11:17.792Z,4.57
2018-07-13T01:13:45.668Z,4.40
2018-07-13T01:16:13.792Z,4.40
2018-07-13T01:18:41.908Z,4.97
2018-07-13T01:21:10.166Z,4.73
2018-07-13T01:23:38.260Z,4.90
2018-07-13T01:26:06.487Z,5.40
2018-07-13T01:28:34.606Z,4.17
2018-07-13T01:31:02.776Z,4.57
2018-07-13T01:33:30.865Z,4.93
2018-07-13T01:35:58.943Z,4.47
2018-07-13T01:38:27.109Z,4.60
2018-07-13T01:40:55.196Z,4.20
2018-07-13T01:43:23.297Z,4.80
2018-07-13T01:45:51.468Z,4.23
2018-07-13T01:48:19.546Z,4.63
2018-07-13T01:50:47.655Z,4.63
2018-07-13T01:53:15.607Z,4.83
2018-07-13T01:55:43.830Z,4.70
2018-07-13T01:58:11.679Z,4.73
2018-07-13T02:00:39.763Z,4.80
2018-07-13T02:03:07.860Z,4.97
2018-07-13T02:05:35.974Z,4.80
2018-07-13T02:08:04.083Z,4.63
2018-07-13T02:10:32.257Z,5.33
2018-07-13T02:13:00.340Z,4.60
2018-07-13T02:15:28.406Z,5.00
2018-07-13T02:17:56.493Z,4.30
2018-07-13T02:20:24.427Z,4.50
2018-07-13T02:22:52.533Z,4.70
2018-07-13T02:25:20.647Z,4.40
2018-07-13T02:27:48.732Z,4.53
2018-07-13T02:30:16.669Z,4.80
2018-07-13T02:32:44.755Z,4.23
2018-07-13T02:35:12.825Z,4.67
2018-07-13T02:37:40.928Z,4.63
2018-07-13T02:40:09.154Z,4.77
2018-07-13T02:42:37.296Z,4.47
2018-07-13T02:45:05.739Z,4.60
2018-07-13T02:47:33.878Z,4.40
2018-07-13T02:50:02.017Z,4.77
2018-07-13T02:52:30.107Z,4.87
2018-07-13T02:54:58.237Z,4.63
2018-07-13T02:57:26.320Z,5.33
2018-07-13T02:59:54.435Z,5.10
2018-07-13T03:02:22.557Z,4.97
2018-07-13T03:04:50.689Z,4.37
2018-07-13T03:07:18.810Z,5.33
2018-07-13T03:09:46.902Z,4.50
2018-07-13T03:12:15.308Z,5.13
2018-07-13T03:14:43.449Z,5.20
2018-07-13T03:17:11.567Z,4.70
2018-07-13T03:19:39.657Z,4.77
2018-07-13T03:22:07.882Z,4.63
2018-07-13T03:24:36.044Z,4.80
2018-07-13T03:27:04.246Z,4.93
2018-07-13T03:29:32.401Z,4.90
2018-07-13T03:32:00.529Z,4.50
2018-07-13T03:34:28.632Z,4.90
2018-07-13T03:36:56.724Z,5.30
2018-07-13T03:39:24.925Z,4.70
2018-07-13T03:41:52.992Z,4.67
2018-07-13T03:44:21.093Z,5.10
2018-07-13T03:46:49.204Z,5.10
2018-07-13T03:49:17.336Z,4.80
2018-07-13T03:51:45.439Z,4.87
2018-07-13T03:54:13.601Z,4.63
2018-07-13T03:56:41.678Z,4.90
2018-07-13T03:59:09.869Z,5.00
2018-07-13T04:01:38.032Z,5.00
2018-07-13T04:04:06.212Z,4.87
2018-07-13T04:06:34.416Z,4.97
2018-07-13T04:09:02.482Z,5.00
2018-07-13T04:11:30.559Z,4.80
2018-07-13T04:13:58.741Z,6.60
2018-07-13T04:16:26.837Z,4.67
2018-07-13T04:18:54.936Z,5.00
2018-07-13T04:21:23.091Z,4.67
2018-07-13T04:23:51.079Z,4.60
2018-07-13T04:26:19.261Z,4.60
2018-07-13T04:28:47.352Z,4.70
2018-07-13T04:31:15.516Z,5.87
2018-07-13T04:33:43.616Z,5.07
2018-07-13T04:36:11.760Z,5.20
2018-07-13T04:38:39.865Z,6.13
2018-07-13T04:41:08.095Z,5.43
2018-07-13T04:43:36.138Z,4.97
2018-07-13T04:46:04.356Z,5.90
2018-07-13T04:48:34.208Z,4.70
2018-07-13T04:51:00.721Z,5.10
2018-07-13T04:53:28.884Z,4.80
2018-07-13T04:55:57.012Z,5.30
2018-07-13T04:58:25.103Z,4.83
2018-07-13T05:00:53.221Z,5.20
2018-07-13T05:03:21.343Z,4.70
2018-07-13T05:05:49.439Z,4.90
2018-07-13T05:08:17.520Z,5.00
2018-07-13T05:10:45.605Z,4.63
2018-07-13T05:13:13.709Z,5.23
2018-07-13T05:15:41.807Z,4.53
2018-07-13T05:18:09.888Z,5.03
2018-07-13T05:20:38.046Z,5.17
2018-07-13T05:23:06.218Z,5.20
2018-07-13T05:25:34.457Z,4.90
2018-07-13T05:28:02.829Z,4.83
2018-07-13T05:30:30.974Z,5.00
2018-07-13T05:32:59.064Z,4.60
2018-07-13T05:35:27.145Z,5.57
2018-07-13T05:37:55.110Z,4.83
2018-07-13T05:40:23.225Z,5.87
2018-07-13T05:42:51.312Z,4.77
2018-07-13T05:45:19.410Z,5.10
2018-07-13T05:47:47.497Z,4.70
2018-07-13T05:50:15.770Z,5.03
2018-07-13T05:52:43.848Z,4.87
2018-07-13T05:55:12.123Z,5.13
2018-07-13T05:57:40.151Z,4.93
2018-07-13T06:00:08.770Z,4.93
2018-07-13T06:02:36.928Z,5.00
2018-07-13T06:05:05.104Z,4.40
2018-07-13T06:07:33.292Z,4.73
2018-07-13T06:10:01.977Z,4.90
2018-07-13T06:12:30.080Z,5.00
2018-07-13T06:14:58.218Z,4.57
2018-07-13T06:17:26.361Z,4.67
2018-07-13T06:19:54.467Z,4.37
2018-07-13T06:22:22.589Z,4.30
2018-07-13T06:24:50.720Z,4.37
2018-07-13T06:27:18.784Z,6.40
2018-07-13T06:29:46.963Z,4.50
2018-07-13T06:32:15.093Z,5.03
2018-07-13T06:34:43.193Z,4.50
2018-07-13T06:37:11.325Z,5.03
2018-07-13T06:39:39.468Z,5.23
2018-07-13T06:42:07.770Z,4.57
2018-07-13T06:44:35.944Z,5.20
2018-07-13T06:47:04.164Z,4.67
2018-07-13T06:49:32.477Z,5.00
2018-07-13T06:52:00.621Z,4.83
2018-07-13T06:54:28.741Z,4.90
2018-07-13T06:56:56.869Z,5.00
2018-07-13T06:59:25.059Z,5.13
2018-07-13T07:01:53.160Z,4.80
2018-07-13T07:04:23.544Z,4.70
2018-07-13T07:06:52.080Z,5.30
2018-07-13T07:09:20.392Z,4.50
2018-07-13T07:11:58.350Z,4.43
2018-07-13T07:14:26.431Z,5.10
2018-07-13T07:16:54.564Z,5.37
2018-07-13T07:19:22.503Z,4.83
2018-07-13T07:21:50.688Z,5.40
2018-07-13T07:24:18.852Z,4.33
2018-07-13T07:26:46.953Z,4.77
2018-07-13T07:29:15.122Z,4.87
2018-07-13T07:31:43.324Z,4.67
2018-07-13T07:34:11.808Z,16.27
2018-07-13T07:36:40.009Z,6.67
2018-07-13T07:39:10.889Z,8.83
2018-07-13T07:41:39.357Z,10.93
2018-07-13T07:44:07.568Z,9.57
2018-07-13T07:46:35.876Z,7.33
2018-07-13T07:49:04.127Z,10.13
2018-07-13T07:51:32.761Z,13.43
2018-07-13T07:54:01.141Z,9.43
2018-07-13T07:56:29.271Z,12.70
2018-07-13T07:58:57.401Z,12.43
2018-07-13T08:01:25.517Z,17.77
2018-07-13T08:03:53.656Z,21.63
2018-07-13T08:06:21.771Z,26.27
2018-07-13T08:08:49.868Z,31.03
2018-07-13T08:11:18.100Z,21.57
2018-07-13T08:13:46.458Z,26.93
2018-07-13T08:16:14.283Z,27.97
2018-07-13T08:18:42.481Z,19.93
2018-07-13T08:21:10.685Z,28.03
2018-07-13T08:23:38.917Z,22.30
2018-07-13T08:26:07.312Z,36.27
2018-07-13T08:28:35.470Z,29.93
2018-07-13T08:31:03.460Z,32.90
2018-07-13T08:33:31.807Z,32.47
2018-07-13T08:35:59.912Z,29.40
2018-07-13T08:38:28.187Z,26.10
2018-07-13T08:40:56.314Z,27.20
2018-07-13T08:43:24.523Z,35.03
2018-07-13T08:45:52.704Z,31.23
2018-07-13T08:48:20.872Z,22.87
2018-07-13T08:50:49.141Z,39.07
2018-07-13T08:53:17.349Z,23.33
2018-07-13T08:55:45.513Z,25.60
2018-07-13T08:58:13.829Z,41.03
2018-07-13T09:00:41.940Z,42.20
2018-07-13T09:03:10.072Z,30.40
2018-07-13T09:05:38.349Z,28.37
2018-07-13T09:08:06.428Z,38.93
2018-07-13T09:10:34.564Z,37.63
2018-07-13T09:13:02.780Z,33.13
2018-07-13T09:15:30.816Z,26.13
2018-07-13T09:17:58.952Z,36.80
2018-07-13T09:20:27.065Z,38.23
2018-07-13T09:22:55.204Z,38.23
2018-07-13T09:25:23.337Z,37.93
2018-07-13T09:27:51.580Z,42.37
2018-07-13T09:30:19.698Z,44.63
2018-07-13T09:32:47.828Z,45.03
2018-07-13T09:35:15.716Z,47.10
2018-07-13T09:37:43.840Z,36.43
2018-07-13T09:40:12.031Z,35.17
2018-07-13T09:42:40.161Z,47.37
2018-07-13T09:45:08.266Z,40.87
2018-07-13T09:47:37.015Z,35.00
2018-07-13T09:50:05.876Z,31.30
2018-07-13T09:52:34.061Z,29.97
2018-07-13T09:55:02.210Z,31.83
2018-07-13T09:57:30.328Z,32.17
2018-07-13T09:59:58.560Z,26.07
2018-07-13T10:02:26.475Z,30.90
2018-07-13T10:04:54.593Z,26.10
2018-07-13T10:07:22.549Z,26.90
2018-07-13T10:09:50.689Z,34.73
2018-07-13T10:12:18.882Z,30.00
2018-07-13T10:14:47.863Z,26.20
2018-07-13T10:17:15.989Z,31.13
2018-07-13T10:19:44.109Z,25.77
2018-07-13T10:22:13.480Z,24.67
2018-07-13T10:24:42.684Z,27.63
2018-07-13T10:27:10.849Z,19.93
2018-07-13T10:29:42.115Z,21.07
2018-07-13T10:32:10.252Z,30.40
2018-07-13T10:34:38.398Z,20.90
2018-07-13T10:37:06.532Z,22.83
2018-07-13T10:39:34.674Z,18.90
2018-07-13T10:42:02.923Z,21.37
2018-07-13T10:44:31.147Z,21.70
2018-07-13T10:46:59.262Z,16.63
2018-07-13T10:49:27.445Z,17.10
2018-07-13T10:51:55.718Z,16.40
2018-07-13T10:54:23.817Z,21.90
2018-07-13T10:56:51.985Z,17.30
2018-07-13T10:59:20.070Z,23.03
2018-07-13T11:01:49.213Z,13.77
2018-07-13T11:04:17.364Z,17.40
2018-07-13T11:06:45.925Z,16.40
2018-07-13T11:09:14.067Z,15.90
2018-07-13T11:11:42.273Z,14.53
2018-07-13T11:14:11.613Z,13.73
2018-07-13T11:16:39.820Z,12.93
2018-07-13T11:19:08.032Z,11.63
2018-07-13T11:21:36.173Z,12.37
2018-07-13T11:24:04.339Z,12.30
2018-07-13T11:26:32.455Z,13.77
2018-07-13T11:29:00.832Z,12.20
2018-07-13T11:31:29.065Z,12.93
2018-07-13T11:33:57.400Z,10.43
2018-07-13T11:36:25.565Z,9.80
2018-07-13T11:38:53.708Z,8.93
2018-07-13T11:41:21.905Z,8.63
2018-07-13T11:43:50.154Z,10.63
2018-07-13T11:46:18.285Z,8.70
2018-07-13T11:48:46.535Z,9.63
2018-07-13T11:51:14.706Z,11.43
2018-07-13T11:53:42.922Z,12.90
2018-07-13T11:56:11.132Z,8.63
2018-07-13T11:58:39.333Z,10.87
2018-07-13T12:01:07.996Z,7.97
2018-07-13T12:03:35.976Z,10.27
2018-07-13T12:06:04.168Z,12.00
2018-07-13T12:08:32.334Z,10.47
2018-07-13T12:11:00.473Z,9.93
2018-07-13T12:13:28.625Z,9.83
2018-07-13T12:15:56.741Z,7.93
2018-07-13T12:18:24.905Z,11.00
2018-07-13T12:20:53.163Z,9.23
2018-07-13T12:23:21.321Z,7.30
2018-07-13T12:25:49.438Z,7.83
2018-07-13T12:28:17.668Z,7.70
2018-07-13T12:30:45.888Z,7.57
2018-07-13T12:33:14.041Z,8.87
2018-07-13T12:35:42.137Z,7.67
2018-07-13T12:38:10.360Z,7.77
2018-07-13T12:40:38.600Z,9.20
2018-07-13T12:43:06.819Z,6.93
2018-07-13T12:45:35.029Z,7.77
2018-07-13T12:48:03.633Z,7.77
2018-07-13T12:50:32.040Z,6.93
2018-07-13T12:53:00.186Z,5.87
2018-07-13T12:55:28.332Z,8.37
2018-07-13T12:57:56.501Z,6.60
2018-07-13T13:00:24.670Z,7.63
2018-07-13T13:02:52.867Z,6.07
2018-07-13T13:05:20.993Z,7.73
2018-07-13T13:07:49.085Z,6.30
2018-07-13T13:10:17.273Z,6.90
2018-07-13T13:12:45.408Z,6.40
2018-07-13T13:15:13.947Z,6.37
2018-07-13T13:20:19.873Z,7.37
2018-07-13T13:22:48.042Z,8.53
2018-07-13T13:25:16.135Z,5.97
2018-07-13T13:27:44.281Z,5.57
2018-07-13T13:30:12.398Z,5.80
2018-07-13T13:32:40.555Z,5.83
2018-07-13T13:35:08.736Z,4.60
2018-07-13T13:37:36.916Z,7.57
2018-07-13T13:40:05.162Z,5.53
2018-07-13T13:42:33.280Z,5.20
2018-07-13T13:45:01.185Z,5.23
2018-07-13T13:47:29.314Z,6.40
2018-07-13T13:49:57.433Z,6.20
2018-07-13T13:52:25.542Z,6.43
2018-07-13T13:54:53.696Z,6.37
2018-07-13T13:57:21.804Z,7.27
2018-07-13T13:59:49.960Z,5.73
2018-07-13T14:02:18.048Z,6.10
2018-07-13T14:04:46.392Z,5.93
2018-07-13T14:07:14.569Z,5.27
2018-07-13T14:09:42.669Z,5.33
2018-07-13T14:12:10.820Z,6.03
2018-07-13T14:14:39.031Z,5.30
2018-07-13T14:17:07.126Z,6.17
2018-07-13T14:19:35.353Z,4.93
2018-07-13T14:22:03.575Z,7.43
2018-07-13T14:24:31.703Z,6.43
2018-07-13T14:26:59.815Z,5.50
2018-07-13T14:29:27.921Z,5.07
2018-07-13T14:31:56.023Z,4.83
2018-07-13T14:34:24.184Z,4.93
2018-07-13T14:36:52.340Z,5.07
2018-07-13T14:39:20.452Z,4.97
2018-07-13T14:41:48.553Z,4.40
2018-07-13T14:44:16.726Z,5.90
2018-07-13T14:46:44.880Z,4.80
2018-07-13T14:49:12.973Z,5.70
2018-07-13T14:51:41.114Z,6.53
2018-07-13T14:54:09.269Z,5.40
2018-07-13T14:56:37.416Z,4.90
2018-07-13T14:59:05.567Z,4.40
2018-07-13T15:01:33.772Z,4.37
2018-07-13T15:04:02.011Z,4.57
2018-07-13T15:06:30.232Z,5.50
2018-07-13T15:08:58.227Z,4.37
2018-07-13T15:11:26.342Z,4.33
2018-07-13T15:13:55.792Z,4.10
2018-07-13T15:16:23.978Z,4.30
2018-07-13T15:18:52.116Z,6.27
2018-07-13T15:21:20.646Z,3.93
2018-07-13T15:23:48.834Z,4.80
2018-07-13T15:26:16.985Z,4.63
2018-07-13T15:28:45.113Z,4.33
2018-07-13T15:31:14.315Z,4.47
2018-07-13T15:33:42.537Z,4.47
2018-07-13T15:36:10.727Z,4.43
2018-07-13T15:38:39.006Z,4.43
2018-07-13T15:41:07.185Z,4.73
2018-07-13T15:43:35.432Z,4.30
2018-07-13T15:46:03.776Z,4.40
2018-07-13T15:48:31.949Z,4.50
2018-07-13T15:51:00.182Z,4.27
2018-07-13T15:53:28.342Z,4.73
2018-07-13T15:55:59.340Z,4.50
2018-07-13T15:58:28.460Z,4.20
2018-07-13T16:00:56.994Z,3.83
2018-07-13T16:03:25.309Z,4.87
2018-07-13T16:05:53.732Z,4.37
2018-07-13T16:08:21.804Z,5.57
2018-07-13T16:10:50.199Z,4.10
2018-07-13T16:13:18.260Z,4.00
2018-07-13T16:15:46.529Z,4.20
2018-07-13T16:18:14.468Z,4.20
2018-07-13T16:20:42.577Z,4.17
2018-07-13T16:23:10.784Z,4.73
2018-07-13T16:25:38.909Z,3.70
2018-07-13T16:28:07.031Z,4.40
2018-07-13T16:30:35.152Z,4.77
2018-07-13T16:33:03.297Z,4.17
2018-07-13T16:35:31.433Z,4.00
2018-07-13T16:37:59.699Z,4.10
2018-07-13T16:40:27.885Z,3.60
2018-07-13T16:42:56.023Z,3.73
2018-07-13T16:45:24.124Z,3.70
2018-07-13T16:47:52.216Z,3.77
2018-07-13T16:50:20.341Z,4.60
2018-07-13T16:52:48.468Z,3.70
2018-07-13T16:55:16.595Z,3.93
2018-07-13T16:57:44.706Z,3.80
2018-07-13T17:00:12.972Z,4.00
2018-07-13T17:02:40.908Z,4.03
2018-07-13T17:05:09.012Z,3.80
2018-07-13T17:07:37.180Z,4.33
2018-07-13T17:10:05.424Z,3.80
2018-07-13T17:12:33.564Z,3.87
2018-07-13T17:15:01.699Z,3.77
2018-07-13T17:17:29.796Z,3.73
2018-07-13T17:19:57.913Z,3.60
2018-07-13T17:22:26.047Z,3.70
2018-07-13T17:24:54.161Z,3.70
2018-07-13T17:27:22.527Z,4.17
2018-07-13T17:29:53.038Z,4.27
2018-07-13T17:32:21.132Z,4.17
2018-07-13T17:34:49.304Z,4.07
2018-07-13T17:37:17.409Z,3.60
2018-07-13T17:39:45.663Z,3.70
2018-07-13T17:42:13.824Z,3.77
2018-07-13T17:44:41.941Z,3.87
2018-07-13T17:47:10.209Z,3.30
2018-07-13T17:49:38.388Z,6.57
2018-07-13T17:52:06.340Z,3.43
2018-07-13T17:54:34.533Z,3.50
2018-07-13T17:57:02.664Z,3.50
2018-07-13T17:59:30.802Z,3.70
2018-07-13T18:01:58.978Z,4.00
2018-07-13T18:04:27.141Z,3.70
2018-07-13T18:06:55.315Z,3.70
2018-07-13T18:09:23.567Z,3.70
2018-07-13T18:11:51.750Z,4.07
2018-07-13T18:14:19.876Z,4.00
2018-07-13T18:16:47.981Z,3.43
2018-07-13T18:19:16.112Z,3.70
2018-07-13T18:21:44.225Z,3.70
2018-07-13T18:24:12.367Z,3.53
2018-07-13T18:26:40.500Z,3.43
2018-07-13T18:29:08.768Z,3.47
2018-07-13T18:31:36.736Z,3.43
2018-07-13T18:34:04.885Z,3.53
2018-07-13T18:36:32.992Z,3.70
2018-07-13T18:39:01.113Z,3.30
2018-07-13T18:41:29.237Z,3.43
2018-07-13T18:43:57.350Z,3.80
2018-07-13T18:46:25.453Z,3.57
2018-07-13T18:48:53.560Z,3.47
2018-07-13T18:51:21.668Z,4.03
2018-07-13T18:53:49.776Z,4.17
2018-07-13T18:56:18.015Z,3.33
2018-07-13T18:58:46.258Z,3.70
2018-07-13T19:01:14.441Z,3.50
2018-07-13T19:03:42.536Z,3.40
2018-07-13T19:06:10.964Z,3.67
2018-07-13T19:08:39.334Z,3.50
2018-07-13T19:11:07.572Z,3.57
2018-07-13T19:13:35.752Z,3.60
2018-07-13T19:16:03.961Z,3.50
2018-07-13T19:18:32.108Z,3.70
2018-07-13T19:21:00.197Z,3.43
2018-07-13T19:23:28.418Z,3.00
2018-07-13T19:25:56.508Z,3.30
2018-07-13T19:28:24.667Z,3.63
2018-07-13T19:30:52.960Z,3.87
2018-07-13T19:33:20.973Z,3.77
2018-07-13T19:35:49.106Z,3.60
2018-07-13T19:38:17.230Z,3.63
2018-07-13T19:40:45.363Z,3.47
2018-07-13T19:43:13.664Z,3.60
2018-07-13T19:45:41.800Z,3.13
2018-07-13T19:48:10.037Z,3.80
2018-07-13T19:50:38.235Z,3.57
2018-07-13T19:53:06.412Z,3.20
2018-07-13T19:55:34.579Z,3.17
2018-07-13T19:58:02.796Z,3.50
2018-07-13T20:00:30.944Z,3.67
2018-07-13T20:02:58.932Z,3.93
2018-07-13T20:05:27.042Z,3.13
2018-07-13T20:07:54.976Z,3.23
2018-07-13T20:10:23.351Z,3.70
2018-07-13T20:12:51.632Z,3.40
2018-07-13T20:15:19.794Z,3.30
2018-07-13T20:17:47.873Z,3.37
2018-07-13T20:20:15.998Z,4.13
2018-07-13T20:22:44.124Z,3.53
2018-07-13T20:25:12.188Z,3.27
2018-07-13T20:27:40.163Z,3.57
2018-07-13T20:30:08.846Z,3.07
2018-07-13T20:32:37.025Z,3.77
2018-07-13T20:35:05.430Z,3.80
2018-07-13T20:37:33.561Z,3.57
2018-07-13T20:40:01.692Z,4.00
2018-07-13T20:42:29.778Z,3.47
2018-07-13T20:44:57.870Z,3.50
2018-07-13T20:47:25.957Z,3.40
2018-07-13T20:49:54.092Z,3.70
2018-07-13T20:52:22.283Z,3.30
2018-07-13T20:54:50.347Z,3.17
2018-07-13T20:57:18.433Z,3.60
2018-07-13T20:59:46.505Z,3.63
2018-07-13T21:02:14.765Z,4.33
2018-07-13T21:04:42.902Z,3.20
2018-07-13T21:07:11.156Z,3.50
2018-07-13T21:09:39.317Z,3.60
2018-07-13T21:12:07.486Z,3.37
2018-07-13T21:14:35.731Z,3.60
2018-07-13T21:17:03.983Z,3.40
2018-07-13T21:19:32.206Z,3.27
2018-07-13T21:22:00.364Z,3.53
2018-07-13T21:24:28.465Z,3.23
2018-07-13T21:26:56.642Z,3.37
2018-07-13T21:29:24.788Z,3.30
2018-07-13T21:31:52.894Z,2.70
2018-07-13T21:34:21.048Z,3.10
2018-07-13T21:36:49.129Z,3.20
2018-07-13T21:39:17.595Z,3.60
2018-07-13T21:41:45.710Z,4.50
2018-07-13T21:44:13.824Z,3.53
2018-07-13T21:46:42.021Z,3.57
2018-07-13T21:49:10.175Z,3.37
2018-07-13T21:51:38.324Z,3.60
2018-07-13T21:54:06.286Z,3.40
2018-07-13T21:56:34.512Z,3.20
2018-07-13T21:59:02.960Z,2.97
2018-07-13T22:01:31.076Z,3.37
2018-07-13T22:03:59.220Z,3.50
2018-07-13T22:06:27.301Z,3.10
2018-07-13T22:08:55.381Z,3.33
2018-07-13T22:11:23.484Z,3.13
2018-07-13T22:13:51.581Z,3.23
2018-07-13T22:16:19.680Z,3.33
2018-07-13T22:18:47.763Z,3.57
2018-07-13T22:21:15.849Z,3.30
2018-07-13T22:23:44.055Z,3.10
2018-07-13T22:26:12.103Z,3.10
2018-07-13T22:28:40.242Z,3.13
2018-07-13T22:31:08.376Z,3.40
2018-07-13T22:33:36.513Z,3.40
2018-07-13T22:36:04.705Z,3.40
2018-07-13T22:38:32.844Z,3.10
2018-07-13T22:41:00.939Z,3.17
2018-07-13T22:43:29.304Z,3.33
2018-07-13T22:45:57.584Z,3.13
2018-07-13T22:48:25.789Z,3.17
2018-07-13T22:50:54.116Z,3.50
2018-07-13T22:53:22.228Z,2.83
2018-07-13T22:55:50.352Z,2.90
2018-07-13T22:58:18.584Z,3.00
2018-07-13T23:00:46.720Z,3.00
2018-07-13T23:03:14.833Z,3.10
2018-07-13T23:05:42.972Z,3.03
2018-07-13T23:08:11.183Z,3.00
2018-07-13T23:10:39.312Z,3.23
2018-07-13T23:13:07.453Z,2.80
2018-07-13T23:15:35.628Z,3.00
2018-07-13T23:18:03.826Z,3.13
2018-07-13T23:20:31.917Z,2.77
2018-07-13T23:23:00.043Z,3.07
2018-07-13T23:25:28.143Z,3.20
2018-07-13T23:27:56.280Z,2.93
2018-07-13T23:30:24.164Z,3.23
2018-07-13T23:32:52.404Z,3.20
2018-07-13T23:35:20.577Z,3.23
2018-07-13T23:37:48.685Z,2.70
2018-07-13T23:40:16.768Z,3.00
2018-07-13T23:42:44.888Z,2.83
2018-07-13T23:45:13.005Z,3.00
2018-07-13T23:47:41.148Z,3.17
2018-07-13T23:50:09.249Z,2.80
2018-07-13T23:52:37.445Z,2.90
2018-07-13T23:55:05.663Z,3.20
2018-07-13T23:57:33.775Z,3.00
